Weser, Texas
Current Conditions -  °F | °C
As of 12:15 PM on Monday 26 Jan 2015 (Local Time) from KBEA Reporting Station
Clear Clear  
Wind Chill: 67°   Ceiling: Unl
Heat Index: 67°   Visibility: 10mi
Dew Point: 42°   Wind: 3mph
Humidity: 39%   Direction: 260°W
Pressure: 30.28"   Gusts: NA
Location:  28.6563°N, 97.4287°W
Report Text: KBEA 261815Z AUTO 26003KT 10SM CLR 20/05 A3028 RMK AO2 T01970053
Loading
Personal Weather Stations






























Interactive Weather Map New forecast layout! Learn more

10-Day Weather Forecast

Advertisements
Track Severe Weather on mobile